»·PEaware :: AAL225 KEUG-KSEA

AAL225 :: KEUG-KSEA

FLIGHT INFORMATION

Flight Status: Arrived
Operator:
American Airlines
More flights by this operator :: More flights under this callsign
Pilot: Michael R. (16974)
Aircraft: BOEING 737-800
(B738)
More flights by this aircraft type
Origin: KEUG Mahlon Sweet
United States
Destination: KSEA Seattle-Tacoma Intl
United States
More flights between these airports :: More routes between these airports
Route: PORTL BTG KRIEG HAWKZ7
File this flight plan on PilotEdge
Remarks:
Altitude:
(Current/Filed)
22,000ft
Speed:
(Current/Filed)
360kts
Departed: 22-Sep-18 02:39 PM
Arrived: 22-Sep-18 03:28 PM
Distance/Time
Traveled:
536nm/0:49
Distance/Time
To Go:
Arrived

Flight Plot

Page will automatically refresh every two minutes.

Flight plan parsing failed; only flown route is shown


Map Options




Map Legend


Flown Route
Filed Route
Departure Airport
Arrival Airport
Navaid (VOR, NDB)
Fix

Horizontal Profiles

Position Reports

Time Latitude Longitude Heading Altitude Ground
Speed
22-Sep-18 14:10 44.120270 -123.213884 201 369ft 0kts
22-Sep-18 14:11 44.120270 -123.213884 201 369ft 0kts
22-Sep-18 14:12 44.120270 -123.213884 201 369ft 0kts
22-Sep-18 14:13 44.120270 -123.213884 201 369ft 0kts
22-Sep-18 14:14 44.120270 -123.213884 201 369ft 0kts
22-Sep-18 14:15 44.120270 -123.213884 201 369ft 0kts
22-Sep-18 14:16 44.120270 -123.213884 201 369ft 0kts
22-Sep-18 14:17 44.120270 -123.213884 201 369ft 0kts
22-Sep-18 14:18 44.120270 -123.213884 201 369ft 0kts
22-Sep-18 14:19 44.120270 -123.213884 201 369ft 0kts
22-Sep-18 14:20 44.120270 -123.213884 201 369ft 0kts
22-Sep-18 14:21 44.120270 -123.213884 201 369ft 0kts
22-Sep-18 14:22 44.120270 -123.213884 201 369ft 0kts
22-Sep-18 14:23 44.120270 -123.213883 201 369ft 0kts
22-Sep-18 14:24 44.120666 -123.213666 201 369ft 2kts
22-Sep-18 14:25 44.120951 -123.213226 280 368ft 1kts
22-Sep-18 14:26 44.120933 -123.213082 280 369ft 0kts
22-Sep-18 14:27 44.120933 -123.213082 280 369ft 0kts
22-Sep-18 14:28 44.120933 -123.213082 280 368ft 0kts
22-Sep-18 14:29 44.120933 -123.213082 280 368ft 0kts
22-Sep-18 14:30 44.120933 -123.213082 280 368ft 0kts
22-Sep-18 14:31 44.120933 -123.213082 280 368ft 0kts
22-Sep-18 14:32 44.120933 -123.213082 280 368ft 0kts
22-Sep-18 14:33 44.120933 -123.213082 280 368ft 0kts
22-Sep-18 14:34 44.121058 -123.214654 320 368ft 4kts
22-Sep-18 14:35 44.124095 -123.216770 330 368ft 15kts
22-Sep-18 14:36 44.129606 -123.217163 359 362ft 24kts
22-Sep-18 14:37 44.134766 -123.217231 359 360ft 9kts
22-Sep-18 14:38 44.135286 -123.217708 273 359ft 0kts
22-Sep-18 14:39 44.135286 -123.217708 273 359ft 0kts
22-Sep-18 14:40 44.134628 -123.219122 180 359ft 4kts
22-Sep-18 14:41 44.100457 -123.218503 182 1461ft 182kts
22-Sep-18 14:42 44.041169 -123.216199 180 3613ft 262kts
22-Sep-18 14:43 43.970691 -123.191400 132 7163ft 285kts
22-Sep-18 14:44 43.981688 -123.097227 27 10217ft 300kts
22-Sep-18 14:45 44.063174 -123.041982 20 12503ft 342kts
22-Sep-18 14:46 44.152113 -122.985964 20 15290ft 364kts
22-Sep-18 14:47 44.246391 -122.926319 19 17901ft 384kts
22-Sep-18 14:48 44.337327 -122.868541 19 20089ft 401kts
22-Sep-18 14:49 44.440715 -122.802568 19 22118ft 418kts
22-Sep-18 14:50 44.550861 -122.731895 21 22112ft 455kts
22-Sep-18 14:51 44.669604 -122.690712 347 22111ft 434kts
22-Sep-18 14:52 44.791508 -122.688756 357 22109ft 442kts
22-Sep-18 14:53 44.913815 -122.676638 357 22111ft 441kts
22-Sep-18 14:54 45.034949 -122.664590 357 22112ft 439kts
22-Sep-18 14:55 45.153845 -122.652286 357 22109ft 438kts
22-Sep-18 14:56 45.275337 -122.639972 357 22104ft 437kts
22-Sep-18 14:57 45.395468 -122.627721 357 22091ft 437kts
22-Sep-18 14:58 45.515631 -122.615490 357 22088ft 437kts
22-Sep-18 14:59 45.635529 -122.603220 357 22088ft 437kts
22-Sep-18 15:00 45.756529 -122.593896 347 22084ft 429kts
22-Sep-18 15:01 45.873284 -122.619679 343 22078ft 427kts
22-Sep-18 15:02 45.990351 -122.646508 343 22071ft 426kts
22-Sep-18 15:03 46.107121 -122.673249 343 22069ft 427kts
22-Sep-18 15:04 46.182022 -122.690475 343 22065ft 426kts
22-Sep-18 15:05 46.298953 -122.717438 343 22058ft 426kts
22-Sep-18 15:06 46.416236 -122.726074 351 22064ft 408kts
22-Sep-18 15:07 46.526437 -122.729622 351 21476ft 379kts
22-Sep-18 15:08 46.625948 -122.733035 350 20447ft 344kts
22-Sep-18 15:09 46.722444 -122.736815 351 18972ft 365kts
22-Sep-18 15:10 46.817000 -122.698617 30 17813ft 354kts
22-Sep-18 15:11 46.895192 -122.610232 34 15898ft 355kts
22-Sep-18 15:12 46.977428 -122.544524 12 14792ft 321kts
22-Sep-18 15:13 47.060815 -122.508223 13 13164ft 322kts
22-Sep-18 15:14 47.141319 -122.488288 2 11767ft 314kts
22-Sep-18 15:15 47.226768 -122.474176 2 10182ft 311kts
22-Sep-18 15:16 47.310104 -122.461699 3 8881ft 295kts
22-Sep-18 15:17 47.385865 -122.454588 355 7768ft 260kts
22-Sep-18 15:18 47.454493 -122.455208 356 6790ft 243kts
22-Sep-18 15:19 47.520202 -122.453633 359 5990ft 234kts
22-Sep-18 15:20 47.586777 -122.450832 358 5197ft 240kts
22-Sep-18 15:21 47.650518 -122.448631 358 3982ft 219kts
22-Sep-18 15:22 47.699410 -122.416356 87 4006ft 215kts
22-Sep-18 15:23 47.692562 -122.337223 145 3985ft 189kts
22-Sep-18 15:24 47.648023 -122.310309 179 3988ft 186kts
22-Sep-18 15:25 47.599199 -122.309802 180 3068ft 167kts
22-Sep-18 15:26 47.553707 -122.310150 180 2202ft 164kts
22-Sep-18 15:27 47.511550 -122.310550 182 1392ft 137kts
22-Sep-18 15:28 47.475495 -122.310868 181 686ft 127kts
22-Sep-18 15:29 47.448160 -122.310609 155 434ft 45kts
22-Sep-18 15:30 47.445977 -122.308126 106 434ft 15kts
22-Sep-18 15:31 47.447136 -122.302985 126 434ft 22kts
22-Sep-18 15:32 47.446058 -122.300785 144 434ft 0kts
22-Sep-18 15:33 47.446064 -122.300792 145 434ft 0kts
22-Sep-18 15:34 47.446064 -122.300792 144 434ft 0kts
22-Sep-18 15:35 47.446064 -122.300792 144 434ft 0kts
22-Sep-18 15:36 47.446064 -122.300792 145 434ft 0kts
22-Sep-18 15:37 47.446064 -122.300792 144 434ft 0kts
22-Sep-18 15:38 47.446064 -122.300792 144 434ft 0kts
22-Sep-18 15:39 47.446064 -122.300792 145 434ft 0kts
22-Sep-18 15:40 47.446064 -122.300792 144 434ft 0kts
22-Sep-18 15:41 47.446064 -122.300792 145 434ft 0kts
22-Sep-18 15:42 47.446064 -122.300792 145 434ft 0kts
22-Sep-18 15:43 40.789032 -111.983754 252 4224ft 0kts
22-Sep-18 15:44 40.789032 -111.983754 252 4224ft 0kts
22-Sep-18 15:45 40.789032 -111.983754 252 4224ft 0kts

Navigation Log

Ident Type
Flight plan parsing failed, navigation log unavailable